x

Matinicus Rock, Me (mism1) Weather Station

5:00 - Tue 3rd Mar 2015 All times are EST. -5 hours from GMT.

  • Wind
    31mph, 36mph gusts
  • Air Temp 19°f
  • Sea Pressure 1024.8mb
  • Matinicus Rock, Me
  • Matinicus Rock, Me

More Historic Weather Station data

Upgrade to MSW Pro to gain access to the past 30 days of data for over 8000 Wavebouys and Weather Stations around the globe.

Join Pro

Comparision Forecast

View Surf forecast
   
mar. 03/03 5:00 31 36 mph 1024.8mb 19f
4:00 32 34 mph 1023.5mb 20f
3:00 29 33 mph 1022.6mb 20f
2:00 30 33 mph 1022mb 20f
1:00 29 32 mph 1021.2mb 21f
12:00 37 40 mph 1019.5mb 22f
lun. 03/02 11:00 46 53 mph 1018.4mb 24f
10:00 40 45 mph 1017.2mb 26f
9:00 41 47 mph 1016mb 27f
8:00 41 45 mph 1015.2mb 28f
7:00 45 49 mph 1014.2mb 29f
6:00 32 34 mph 1013mb 30f
5:00 40 43 mph 1011.1mb 31f
4:00 40 45 mph 1009.9mb 31f
3:00 34 38 mph 1009.3mb 32f
2:00 37 39 mph 1008.5mb 32f
1:00 24 28 mph 1008.9mb 31f
12:00 24 28 mph 1009.5mb 29f
11:00 18 22 mph 1010.1mb 27f
10:00 17 18 mph 1010.2mb 28f
9:00 15 17 mph 1010.8mb 26f
8:00 18 21 mph 1011.1mb 26f
7:00 21 22 mph 1011.2mb 26f
6:00 15 17 mph 1011.7mb 27f
5:00 14 16 mph 1012.2mb 28f
4:00 16 18 mph 1012.7mb 28f
3:00 17 20 mph 1013.6mb 29f
2:00 18 20 mph 1015.3mb 30f
1:00 23 25 mph 1017.1mb 31f
12:00 23 24 mph 1018.4mb 32f
dim. 03/01 11:00 28 30 mph 1020.3mb 32f
10:00 31 34 mph 1021.7mb 31f
9:00 28 29 mph 1023.4mb 30f
8:00 25 26 mph 1024.4mb 29f
7:00 30 32 mph 1025.9mb 31f
6:00 24 28 mph 1027.6mb 31f
5:00 25 28 mph 1028.6mb 31f
4:00 22 25 mph 1029.4mb 31f
3:00 20 22 mph 1030.4mb 31f
2:00 20 21 mph 1031.1mb 32f
1:00 18 24 mph 1032.6mb 32f
12:00 7 9 mph 1034.1mb 31f
11:00 5 6 mph 1036mb 30f
10:00 5 6 mph 1036.7mb 29f
9:00 5 7 mph 1037.6mb 27f
8:00 5 6 mph 1038mb 26f
7:00 8 9 mph 1037.7mb 26f
6:00 7 8 mph 1038.1mb 26f
5:00 9 11 mph 1038.6mb 26f
4:00 10 13 mph 1038.1mb 26f
3:00 11 14 mph 1038.2mb 26f
2:00 14 16 mph 1038.6mb 27f
1:00 14 15 mph 1038.3mb 27f
12:00 20 21 mph 1037.9mb 28f
sam. 02/28 11:00 15 18 mph 1037.7mb 31f
10:00 17 21 mph 1038mb 30f
9:00 17 21 mph 1038.1mb 29f
8:00 21 23 mph 1037.7mb 28f
7:00 14 17 mph 1037.9mb 27f
6:00 17 20 mph 1037.7mb 26f
5:00 18 22 mph 1037.8mb 25f
4:00 17 21 mph 1037.8mb 24f
3:00 11 15 mph 1038.1mb 23f
2:00 13 15 mph 1038.2mb 22f
1:00 14 15 mph 1038.7mb 21f
12:00 14 16 mph 1039.2mb 21f
11:00 10 13 mph 1039.5mb 20f
10:00 9 10 mph 1039.2mb 20f
9:00 2 5 mph 1039.3mb 20f
8:00 6 7 mph 1038.7mb 19f
7:00 1 3 mph 1037.8mb 19f
6:00 5 6 mph 1037.2mb 18f
5:00 11 14 mph 1035.9mb 18f
4:00 16 18 mph 1035mb 17f
3:00 20 22 mph 1034.3mb 18f
2:00 22 23 mph 1033.5mb 19f
1:00 33 36 mph 1032.6mb 20f
12:00 25 28 mph 1031.9mb 21f
ven. 02/27 11:00 21 24 mph 1031.4mb 22f
10:00 23 24 mph 1030.7mb 24f
9:00 20 22 mph 1030mb 24f
8:00 20 23 mph 1029.1mb 24f
7:00 14 16 mph 1029mb 24f
6:00 11 16 mph 1028mb 23f
5:00 8 9 mph 1027.3mb 22f
4:00 13 15 mph 1026.7mb 22f
3:00 11 15 mph 1026.5mb 20f
2:00 11 13 mph 1026.3mb 19f
1:00 11 14 mph 1026.1mb 18f
12:00 7 9 mph 1026.4mb 16f